CheckWX is a tool to help pilots better visualize weather data.  It is not intended as a substitute for an official pre-flight weather briefing.

00:42:32 UTC

KASL METAR
Harrison County Airport
Marshall, Texas, USA
Current

28 mins ago

KASL 200015Z AUTO 00000KT 10SM CLR 07/00 A3048 RMK AO1 T00720002
Observed
Jan-20 @ 00:15 UTC
Visibility
10 SM
Flight Rules
VFR
Cloud Levels
  • Clear skies
Temperature
C / 45°F
Dewpoint
C / 32°F
Humidity
61%
Altimeter
30.48" Hg
Pressure
1032.22 hPa
Previous

48 mins ago

KASL 192355Z AUTO 00000KT 10SM CLR 07/M01 A3048 RMK AO1 T00721011 10127 20072
Observed
Jan-19 @ 23:55 UTC
Visibility
10 SM
Flight Rules
VFR
Cloud Levels
  • Clear skies
Temperature
C / 45°F
Dewpoint
-1°C / 30°F
Humidity
57%
Altimeter
30.48" Hg
Pressure
1032.22 hPa
Previous

1 hour ago

KASL 192335Z AUTO 00000KT 10SM CLR 10/M03 A3048 RMK AO1 T00971032
Observed
Jan-19 @ 23:35 UTC
Visibility
10 SM
Flight Rules
VFR
Cloud Levels
  • Clear skies
Temperature
10°C / 50°F
Dewpoint
-3°C / 27°F
Humidity
40%
Altimeter
30.48" Hg
Pressure
1032.22 hPa